Tianjin, China
Current Conditions -  °F | °C
As of 3:00 PM on Friday 19 Dec 2014 (Local Time) from ZBTJ Reporting Station
Clear Clear  
Wind Chill:   Ceiling: Unl
Heat Index:   Visibility: 6mi
Dew Point: -16°   Wind: 20mph
Humidity: 19%   Direction: 330°NNW
Pressure: 30.18"   Gusts: NA
Location:  39.13°N, 117.2°E
Report Text: ZBTJ 190700Z 33009MPS CAVOK 06/M16 Q1022 NOSIG
Loading
Personal Weather Stations






























Interactive Weather Map New forecast layout! Learn more

10-Day Weather Forecast

Advertisements
Track Severe Weather on mobile